createdAt,value
2023-02-12T00:02:14.871Z,45.17
2023-02-12T00:04:41.386Z,40.22
2023-02-12T00:07:07.594Z,47.38
2023-02-12T00:09:33.924Z,41.97
2023-02-12T00:12:00.140Z,40.15
2023-02-12T00:14:26.365Z,39.75
2023-02-12T00:16:52.557Z,46.15
2023-02-12T00:19:18.830Z,44.88
2023-02-12T00:21:45.135Z,44.47
2023-02-12T00:24:11.380Z,41.95
2023-02-12T00:26:37.628Z,44.25
2023-02-12T00:29:03.902Z,46.30
2023-02-12T00:31:31.350Z,41.65
2023-02-12T00:33:58.185Z,42.88
2023-02-12T00:36:25.433Z,43.83
2023-02-12T00:38:53.170Z,40.70
2023-02-12T00:41:19.593Z,45.25
2023-02-12T00:43:45.841Z,47.95
2023-02-12T00:46:12.127Z,46.17
2023-02-12T00:48:38.517Z,38.60
2023-02-12T00:51:04.926Z,38.67
2023-02-12T00:53:31.472Z,43.80
2023-02-12T00:55:58.166Z,38.13
2023-02-12T00:58:24.546Z,41.25
2023-02-12T01:00:50.798Z,39.53
2023-02-12T01:03:17.400Z,52.63
2023-02-12T01:05:43.961Z,42.70
2023-02-12T01:08:14.014Z,36.38
2023-02-12T01:10:40.530Z,40.55
2023-02-12T01:13:07.033Z,35.53
2023-02-12T01:15:33.304Z,40.85
2023-02-12T01:17:59.565Z,39.67
2023-02-12T01:20:25.796Z,43.20
2023-02-12T01:22:52.141Z,39.35
2023-02-12T01:25:20.508Z,42.60
2023-02-12T01:27:47.038Z,36.92
2023-02-12T01:30:13.507Z,41.75
2023-02-12T01:32:39.929Z,45.92
2023-02-12T01:35:07.883Z,44.72
2023-02-12T01:37:35.413Z,51.17
2023-02-12T01:40:01.704Z,41.75
2023-02-12T01:42:27.939Z,39.70
2023-02-12T01:45:12.619Z,46.00
2023-02-12T01:47:39.416Z,50.78
2023-02-12T01:50:10.975Z,50.60
2023-02-12T01:52:38.414Z,46.72
2023-02-12T01:55:06.718Z,48.28
2023-02-12T01:57:33.978Z,40.72
2023-02-12T02:00:01.649Z,41.08
2023-02-12T02:02:28.352Z,41.75
2023-02-12T02:04:57.274Z,41.60
2023-02-12T02:07:23.897Z,41.17
2023-02-12T02:09:50.384Z,44.80
2023-02-12T02:12:35.429Z,44.50
2023-02-12T02:15:02.749Z,38.15
2023-02-12T02:17:34.805Z,34.20
2023-02-12T02:20:13.190Z,39.53
2023-02-12T02:22:48.497Z,37.50
2023-02-12T02:25:19.181Z,39.95
2023-02-12T02:28:00.424Z,41.70
2023-02-12T02:30:34.730Z,39.67
2023-02-12T02:33:13.740Z,42.42
2023-02-12T02:35:45.507Z,33.92
2023-02-12T02:38:18.247Z,41.05
2023-02-12T02:40:54.749Z,37.20
2023-02-12T02:43:39.888Z,38.83
2023-02-12T02:46:11.704Z,33.78
2023-02-12T02:48:40.718Z,38.03
2023-02-12T02:51:19.711Z,35.28
2023-02-12T02:53:48.765Z,39.65
2023-02-12T02:56:17.734Z,36.35
2023-02-12T02:58:56.853Z,38.08
2023-02-12T03:01:25.585Z,38.20
2023-02-12T03:03:55.227Z,38.13
2023-02-12T03:06:28.661Z,37.53
2023-02-12T03:08:59.795Z,94.53
2023-02-12T03:11:30.441Z,66.60
2023-02-12T03:13:59.763Z,40.47
2023-02-12T03:16:28.384Z,40.08
2023-02-12T03:18:56.702Z,40.53
2023-02-12T03:21:28.738Z,41.95
2023-02-12T03:24:02.125Z,38.05
2023-02-12T03:26:37.506Z,39.35
2023-02-12T03:29:03.879Z,42.70
2023-02-12T03:32:02.557Z,38.75
2023-02-12T03:36:58.269Z,37.83
2023-02-12T03:39:33.144Z,40.22
2023-02-12T03:42:06.618Z,39.70
2023-02-12T03:44:51.606Z,39.83
2023-02-12T03:47:27.807Z,35.97
2023-02-12T03:50:01.022Z,45.42
2023-02-12T03:52:28.288Z,58.47
2023-02-12T03:54:54.513Z,46.45
2023-02-12T03:57:22.456Z,44.35
2023-02-12T03:59:49.078Z,40.40
2023-02-12T04:02:16.351Z,38.78
2023-02-12T04:04:43.770Z,35.33
2023-02-12T04:07:10.334Z,42.35
2023-02-12T04:09:36.626Z,45.70
2023-02-12T04:12:02.811Z,44.20
2023-02-12T04:14:28.994Z,44.33
2023-02-12T04:17:02.883Z,40.60
2023-02-12T04:19:35.518Z,44.17
2023-02-12T04:22:01.702Z,44.83
2023-02-12T04:24:33.450Z,38.72
2023-02-12T04:27:12.522Z,45.30
2023-02-12T04:29:41.791Z,40.03
2023-02-12T04:32:12.534Z,43.83
2023-02-12T04:34:41.823Z,44.53
2023-02-12T04:37:13.631Z,41.03
2023-02-12T04:39:41.211Z,43.72
2023-02-12T04:42:07.608Z,42.05
2023-02-12T04:44:35.240Z,46.58
2023-02-12T04:47:01.505Z,37.90
2023-02-12T04:49:27.798Z,41.20
2023-02-12T04:51:54.306Z,40.13
2023-02-12T04:54:21.666Z,41.55
2023-02-12T04:56:48.067Z,35.88
2023-02-12T04:59:14.323Z,40.28
2023-02-12T05:01:41.460Z,43.90
2023-02-12T05:04:08.433Z,37.40
2023-02-12T05:09:00.821Z,38.35
2023-02-12T05:11:27.042Z,37.53
2023-02-12T05:13:53.649Z,39.22
2023-02-12T05:16:20.531Z,40.97
2023-02-12T05:21:13.169Z,38.40
2023-02-12T05:23:39.933Z,35.95
2023-02-12T05:26:08.032Z,39.58
2023-02-12T05:28:34.494Z,40.10
2023-02-12T05:31:01.715Z,43.88
2023-02-12T05:33:28.002Z,41.80
2023-02-12T05:35:55.592Z,48.00
2023-02-12T05:38:22.134Z,48.10
2023-02-12T05:40:48.344Z,47.90
2023-02-12T05:43:14.607Z,44.38
2023-02-12T05:45:43.004Z,48.38
2023-02-12T05:48:09.258Z,49.75
2023-02-12T05:50:36.323Z,52.72
2023-02-12T05:53:02.540Z,58.47
2023-02-12T05:55:28.865Z,57.97
2023-02-12T05:57:55.090Z,45.92
2023-02-12T06:00:21.651Z,52.42
2023-02-12T06:02:47.926Z,45.75
2023-02-12T06:05:14.267Z,49.08
2023-02-12T06:07:40.483Z,46.17
2023-02-12T06:10:07.036Z,44.00
2023-02-12T06:12:33.242Z,43.30
2023-02-12T06:14:59.455Z,100.47
2023-02-12T06:17:25.711Z,94.68
2023-02-12T06:19:51.933Z,61.10
2023-02-12T06:22:18.166Z,59.05
2023-02-12T06:24:44.379Z,53.72
2023-02-12T06:27:10.591Z,49.10
2023-02-12T06:29:36.857Z,47.80
2023-02-12T06:32:03.288Z,90.80
2023-02-12T06:34:29.670Z,60.50
2023-02-12T06:36:55.929Z,63.55
2023-02-12T06:39:22.168Z,57.88
2023-02-12T06:41:48.444Z,50.72
2023-02-12T06:44:14.712Z,44.25
2023-02-12T06:46:41.020Z,50.47
2023-02-12T06:49:07.343Z,49.78
2023-02-12T06:51:33.597Z,44.50
2023-02-12T06:53:59.851Z,45.13
2023-02-12T06:56:26.618Z,45.90
2023-02-12T06:58:59.475Z,47.22
2023-02-12T07:01:27.021Z,48.03
2023-02-12T07:03:54.653Z,41.35
2023-02-12T07:06:21.372Z,43.40
2023-02-12T07:08:47.738Z,44.28
2023-02-12T07:11:13.953Z,50.63
2023-02-12T07:13:40.900Z,43.53
2023-02-12T07:18:34.340Z,44.10
2023-02-12T07:21:00.583Z,49.00
2023-02-12T07:23:26.803Z,46.08
2023-02-12T07:25:59.627Z,44.80
2023-02-12T07:28:26.739Z,47.75
2023-02-12T07:30:53.069Z,39.78
2023-02-12T07:33:19.726Z,46.38
2023-02-12T07:35:46.230Z,40.45
2023-02-12T07:38:12.509Z,48.70
2023-02-12T07:40:38.891Z,51.28
2023-02-12T07:43:05.104Z,55.08
2023-02-12T07:45:31.378Z,50.90
2023-02-12T07:47:57.585Z,48.58
2023-02-12T07:50:23.814Z,44.28
2023-02-12T07:52:50.361Z,47.47
2023-02-12T07:55:16.741Z,43.92
2023-02-12T07:57:42.960Z,50.78
2023-02-12T08:00:09.560Z,55.58
2023-02-12T08:02:35.959Z,50.47
2023-02-12T08:05:02.237Z,51.30
2023-02-12T08:07:29.156Z,51.13
2023-02-12T08:12:21.520Z,48.22
2023-02-12T08:14:47.748Z,49.83
2023-02-12T08:17:13.959Z,48.70
2023-02-12T08:19:40.230Z,48.72
2023-02-12T08:22:07.352Z,46.25
2023-02-12T08:24:33.691Z,46.88
2023-02-12T08:26:59.990Z,46.70
2023-02-12T08:29:28.383Z,43.42
2023-02-12T08:31:55.912Z,45.03
2023-02-12T08:34:23.393Z,48.22
2023-02-12T08:36:50.659Z,49.80
2023-02-12T08:39:17.819Z,47.10
2023-02-12T08:41:44.202Z,50.58
2023-02-12T08:44:18.198Z,62.78
2023-02-12T08:46:46.701Z,69.28
2023-02-12T08:49:17.834Z,71.13
2023-02-12T08:51:45.351Z,58.75
2023-02-12T08:54:13.236Z,55.67
2023-02-12T08:56:39.803Z,55.42
2023-02-12T08:59:06.992Z,53.50
2023-02-12T09:01:34.795Z,54.15
2023-02-12T09:04:01.339Z,51.35
2023-02-12T09:06:27.768Z,57.28
2023-02-12T09:08:54.549Z,58.28
2023-02-12T09:11:24.343Z,57.83
2023-02-12T09:13:50.964Z,58.78
2023-02-12T09:16:17.201Z,62.92
2023-02-12T09:18:43.549Z,57.45
2023-02-12T09:21:11.838Z,56.15
2023-02-12T09:23:38.291Z,57.00
2023-02-12T09:26:05.616Z,52.08
2023-02-12T09:28:32.349Z,55.85
2023-02-12T09:30:58.805Z,51.90
2023-02-12T09:33:25.083Z,55.40
2023-02-12T09:35:51.612Z,58.20
2023-02-12T09:38:17.836Z,57.92
2023-02-12T09:40:53.126Z,58.38
2023-02-12T09:43:31.686Z,55.72
2023-02-12T09:45:58.176Z,52.85
2023-02-12T09:48:35.092Z,48.47
2023-02-12T09:51:03.653Z,54.17
2023-02-12T09:53:30.869Z,47.20
2023-02-12T09:55:57.485Z,54.10
2023-02-12T09:58:30.117Z,53.55
2023-02-12T10:00:56.541Z,52.25
2023-02-12T10:03:23.109Z,50.03
2023-02-12T10:05:51.673Z,47.05
2023-02-12T10:08:33.009Z,54.90
2023-02-12T10:11:14.318Z,52.15
2023-02-12T10:13:58.978Z,53.05
2023-02-12T10:16:38.341Z,49.83
2023-02-12T10:19:23.871Z,52.50
2023-02-12T10:22:00.167Z,52.88
2023-02-12T10:24:31.672Z,53.70
2023-02-12T10:26:59.638Z,45.83
2023-02-12T10:29:28.678Z,56.83
2023-02-12T10:32:07.117Z,52.10
2023-02-12T10:34:34.526Z,51.47
2023-02-12T10:37:17.741Z,49.92
2023-02-12T10:39:48.772Z,56.67
2023-02-12T10:42:18.386Z,53.63
2023-02-12T10:44:44.661Z,53.88
2023-02-12T10:47:17.630Z,58.22
2023-02-12T10:49:43.928Z,52.38
2023-02-12T10:52:25.583Z,61.58
2023-02-12T10:54:51.785Z,49.00
2023-02-12T10:57:20.762Z,47.72
2023-02-12T10:59:47.649Z,50.05
2023-02-12T11:04:40.233Z,51.58
2023-02-12T11:07:07.904Z,49.35
2023-02-12T11:09:36.068Z,49.83
2023-02-12T11:12:03.387Z,44.67
2023-02-12T11:14:30.651Z,43.55
2023-02-12T11:16:57.876Z,46.80
2023-02-12T11:19:25.605Z,46.92
2023-02-12T11:21:52.478Z,45.45
2023-02-12T11:26:44.840Z,49.17
2023-02-12T11:29:19.065Z,44.65
2023-02-12T11:31:59.695Z,46.92
2023-02-12T11:34:26.444Z,44.78
2023-02-12T11:36:53.641Z,46.83
2023-02-12T11:39:24.765Z,42.72
2023-02-12T11:41:55.307Z,51.30
2023-02-12T11:44:35.956Z,44.58
2023-02-12T11:47:08.750Z,44.17
2023-02-12T11:49:39.112Z,45.22
2023-02-12T11:52:06.313Z,41.20
2023-02-12T11:54:40.492Z,41.63
2023-02-12T11:57:06.782Z,44.90
2023-02-12T11:59:37.096Z,42.95
2023-02-12T12:02:06.402Z,37.40
2023-02-12T12:04:33.828Z,38.47
2023-02-12T12:07:02.684Z,37.95
2023-02-12T12:09:39.508Z,36.03
2023-02-12T12:12:21.353Z,41.45
2023-02-12T12:15:33.924Z,34.85
2023-02-12T12:18:30.876Z,23.02
2023-02-12T12:21:01.588Z,15.30
2023-02-12T12:23:36.918Z,5.72
2023-02-12T12:26:07.058Z,8.30
2023-02-12T12:28:40.797Z,7.90
2023-02-12T12:31:10.335Z,6.07
2023-02-12T12:33:48.767Z,7.43
2023-02-12T12:36:30.671Z,9.10
2023-02-12T12:39:09.301Z,8.43
2023-02-12T12:41:41.705Z,8.45
2023-02-12T12:44:22.937Z,11.35
2023-02-12T12:46:52.188Z,10.18
2023-02-12T12:49:30.514Z,17.13
2023-02-12T12:52:16.614Z,10.07
2023-02-12T12:54:54.926Z,13.98
2023-02-12T12:57:21.133Z,12.15
2023-02-12T12:59:56.498Z,15.25
2023-02-12T13:02:28.884Z,15.32
2023-02-12T13:05:17.952Z,12.38
2023-02-12T13:07:54.401Z,13.52
2023-02-12T13:10:23.708Z,17.33
2023-02-12T13:12:57.576Z,12.00
2023-02-12T13:15:41.108Z,14.15
2023-02-12T13:18:28.190Z,16.52
2023-02-12T13:20:57.168Z,11.10
2023-02-12T13:23:28.202Z,10.43
2023-02-12T13:25:54.839Z,12.23
2023-02-12T13:28:29.408Z,14.02
2023-02-12T13:30:56.305Z,12.18
2023-02-12T13:35:51.709Z,11.52
2023-02-12T13:38:27.144Z,16.42
2023-02-12T13:40:56.595Z,12.07
2023-02-12T13:43:41.364Z,12.73
2023-02-12T13:46:07.551Z,10.50
2023-02-12T13:48:36.895Z,14.18
2023-02-12T13:51:09.238Z,11.77
2023-02-12T13:53:47.263Z,12.70
2023-02-12T13:56:29.304Z,13.63
2023-02-12T13:59:00.752Z,12.88
2023-02-12T14:01:38.086Z,17.42
2023-02-12T14:04:23.393Z,12.60
2023-02-12T14:06:54.202Z,11.52
2023-02-12T14:09:23.774Z,21.58
2023-02-12T14:11:51.156Z,14.75
2023-02-12T14:14:26.044Z,9.80
2023-02-12T14:16:52.262Z,8.85
2023-02-12T14:19:37.116Z,9.85
2023-02-12T14:22:09.955Z,10.02
2023-02-12T14:24:36.143Z,8.98
2023-02-12T14:27:06.677Z,15.60
2023-02-12T14:29:32.891Z,12.77
2023-02-12T14:31:59.200Z,10.50
2023-02-12T14:34:31.636Z,13.85
2023-02-12T14:37:11.648Z,11.10
2023-02-12T14:39:37.877Z,11.82
2023-02-12T14:42:10.226Z,12.02
2023-02-12T14:44:36.432Z,12.02
2023-02-12T14:47:06.668Z,9.85
2023-02-12T14:49:36.601Z,12.77
2023-02-12T14:52:05.072Z,11.13
2023-02-12T14:54:36.624Z,10.38
2023-02-12T14:57:06.266Z,11.18
2023-02-12T14:59:36.823Z,11.13
2023-02-12T15:02:04.100Z,14.38
2023-02-12T15:04:32.629Z,12.50
2023-02-12T15:06:58.865Z,13.30
2023-02-12T15:09:38.855Z,12.07
2023-02-12T15:12:07.576Z,11.82
2023-02-12T15:14:39.291Z,12.00
2023-02-12T15:17:22.138Z,15.55
2023-02-12T15:19:50.633Z,13.48
2023-02-12T15:22:55.467Z,14.68
2023-02-12T15:25:25.943Z,12.00
2023-02-12T15:27:55.238Z,17.15
2023-02-12T15:30:26.963Z,13.35
2023-02-12T15:32:55.252Z,15.48
2023-02-12T15:35:29.024Z,20.20
2023-02-12T15:37:55.956Z,18.05
2023-02-12T15:42:59.179Z,11.57
2023-02-12T15:45:26.846Z,14.48
2023-02-12T15:47:59.272Z,19.65
2023-02-12T15:50:25.762Z,14.90
2023-02-12T15:52:52.856Z,20.73
2023-02-12T15:55:22.358Z,15.80
2023-02-12T15:57:49.616Z,21.52
2023-02-12T16:00:24.653Z,28.10
2023-02-12T16:02:54.038Z,21.02
2023-02-12T16:05:21.110Z,19.25
2023-02-12T16:07:47.661Z,15.30
2023-02-12T16:10:15.066Z,17.45
2023-02-12T16:12:41.629Z,22.50
2023-02-12T16:15:22.950Z,21.67
2023-02-12T16:17:49.214Z,31.77
2023-02-12T16:20:15.416Z,14.40
2023-02-12T16:22:42.752Z,17.42
2023-02-12T16:25:15.364Z,15.32
2023-02-12T16:27:48.609Z,16.83
2023-02-12T16:30:31.390Z,19.27
2023-02-12T16:32:57.977Z,13.43
2023-02-12T16:35:33.758Z,17.63
2023-02-12T16:38:01.988Z,18.13
2023-02-12T16:40:30.003Z,13.00
2023-02-12T16:42:57.377Z,20.38
2023-02-12T16:45:26.842Z,21.38
2023-02-12T16:48:04.047Z,45.70
2023-02-12T16:50:30.971Z,22.23
2023-02-12T16:55:23.325Z,18.58
2023-02-12T16:57:49.560Z,18.55
2023-02-12T17:00:16.416Z,27.60
2023-02-12T17:05:10.132Z,26.38
2023-02-12T17:07:36.468Z,53.95
2023-02-12T17:10:02.780Z,49.63
2023-02-12T17:12:29.001Z,60.50
2023-02-12T17:14:55.925Z,33.75
2023-02-12T17:19:48.442Z,37.58
2023-02-12T17:22:17.532Z,64.32
2023-02-12T17:24:43.769Z,46.78
2023-02-12T17:27:11.545Z,77.88
2023-02-12T17:29:37.765Z,70.13
2023-02-12T17:32:04.078Z,41.95
2023-02-12T17:34:39.685Z,37.63
2023-02-12T17:37:13.544Z,50.83
2023-02-12T17:39:39.800Z,37.72
2023-02-12T17:42:06.469Z,32.78
2023-02-12T17:44:32.664Z,31.63
2023-02-12T17:46:58.980Z,35.00
2023-02-12T17:49:25.188Z,34.60
2023-02-12T17:51:51.426Z,33.90
2023-02-12T17:54:18.629Z,32.00
2023-02-12T17:56:44.824Z,37.33
2023-02-12T17:59:11.098Z,38.55
2023-02-12T18:01:37.448Z,40.50
2023-02-12T18:04:03.714Z,40.90
2023-02-12T18:06:30.829Z,43.13
2023-02-12T18:08:57.743Z,45.75
2023-02-12T18:13:53.747Z,49.72
2023-02-12T18:16:20.449Z,57.42
2023-02-12T18:18:46.702Z,43.67
2023-02-12T18:21:14.328Z,54.85
2023-02-12T18:23:40.776Z,55.45
2023-02-12T18:26:14.938Z,50.17
2023-02-12T18:28:41.448Z,48.75
2023-02-12T18:31:08.432Z,50.90
2023-02-12T18:36:02.462Z,45.55
2023-02-12T18:38:28.904Z,50.60
2023-02-12T18:40:55.614Z,51.22
2023-02-12T18:45:50.181Z,44.53
2023-02-12T18:48:16.421Z,56.22
2023-02-12T18:50:42.687Z,49.75
2023-02-12T18:53:09.108Z,49.42
2023-02-12T18:55:37.037Z,49.60
2023-02-12T18:58:03.277Z,51.45
2023-02-12T19:00:29.507Z,63.83
2023-02-12T19:02:55.867Z,80.32
2023-02-12T19:05:22.162Z,84.90
2023-02-12T19:07:48.480Z,91.13
2023-02-12T19:10:14.693Z,60.65
2023-02-12T19:12:40.915Z,50.60
2023-02-12T19:15:08.656Z,55.45
2023-02-12T19:17:36.280Z,60.92
2023-02-12T19:20:02.570Z,52.67
2023-02-12T19:22:28.981Z,58.13
2023-02-12T19:24:55.259Z,60.10
2023-02-12T19:27:21.490Z,65.45
2023-02-12T19:29:47.761Z,73.88
2023-02-12T19:32:14.119Z,58.13
2023-02-12T19:34:40.425Z,69.20
2023-02-12T19:37:07.851Z,59.63
2023-02-12T19:39:34.133Z,66.88
2023-02-12T19:42:00.341Z,59.08
2023-02-12T19:44:26.677Z,60.50
2023-02-12T19:46:53.196Z,55.45
2023-02-12T19:49:23.592Z,61.42
2023-02-12T19:51:49.846Z,60.92
2023-02-12T19:54:16.759Z,64.97
2023-02-12T19:59:10.896Z,58.97
2023-02-12T20:01:37.229Z,64.38
2023-02-12T20:04:03.630Z,65.15
2023-02-12T20:06:31.720Z,62.05
2023-02-12T20:08:58.165Z,64.05
2023-02-12T20:11:25.937Z,62.97
2023-02-12T20:13:52.215Z,75.25
2023-02-12T20:16:19.966Z,72.15
2023-02-12T20:18:48.725Z,66.80
2023-02-12T20:21:16.705Z,77.65
2023-02-12T20:23:43.106Z,67.53
2023-02-12T20:26:10.418Z,70.05
2023-02-12T20:28:37.707Z,78.63
2023-02-12T20:31:08.337Z,66.38
2023-02-12T20:33:34.581Z,65.38
2023-02-12T20:36:00.768Z,67.38
2023-02-12T20:38:27.045Z,73.10
2023-02-12T20:40:53.342Z,71.18
2023-02-12T20:43:19.569Z,68.60
2023-02-12T20:45:45.826Z,76.80
2023-02-12T20:48:12.070Z,82.38
2023-02-12T20:50:38.320Z,92.60
2023-02-12T20:53:05.914Z,80.65
2023-02-12T20:55:33.376Z,77.65
2023-02-12T20:57:59.726Z,91.35
2023-02-12T21:00:25.963Z,84.88
2023-02-12T21:02:54.449Z,77.13
2023-02-12T21:05:20.961Z,69.88
2023-02-12T21:07:47.858Z,75.53
2023-02-12T21:12:40.205Z,69.70
2023-02-12T21:15:06.538Z,69.05
2023-02-12T21:17:33.295Z,59.92
2023-02-12T21:20:00.884Z,67.20
2023-02-12T21:22:27.124Z,70.60
2023-02-12T21:24:53.349Z,65.10
2023-02-12T21:27:19.628Z,70.43
2023-02-12T21:29:45.875Z,68.93
2023-02-12T21:32:12.198Z,71.03
2023-02-12T21:34:38.518Z,71.72
2023-02-12T21:37:04.731Z,63.15
2023-02-12T21:39:31.039Z,61.88
2023-02-12T21:41:58.504Z,63.97
2023-02-12T21:44:25.184Z,55.80
2023-02-12T21:46:51.839Z,62.65
2023-02-12T21:49:24.691Z,72.88
2023-02-12T21:51:52.445Z,73.65
2023-02-12T21:54:19.315Z,67.57
2023-02-12T21:59:11.972Z,67.38
2023-02-12T22:01:41.186Z,62.35
2023-02-12T22:04:07.626Z,52.53
2023-02-12T22:06:37.046Z,50.17
2023-02-12T22:09:06.378Z,60.40
2023-02-12T22:11:32.627Z,57.45
2023-02-12T22:13:58.855Z,53.22
2023-02-12T22:16:26.324Z,57.95
2023-02-12T22:18:55.286Z,49.92
2023-02-12T22:21:22.564Z,54.17
2023-02-12T22:23:48.822Z,44.92
2023-02-12T22:26:16.504Z,52.40
2023-02-12T22:28:47.569Z,55.95
2023-02-12T22:31:15.029Z,50.05
2023-02-12T22:33:41.308Z,50.70
2023-02-12T22:36:08.666Z,53.63
2023-02-12T22:38:35.620Z,51.75
2023-02-12T22:41:02.236Z,59.55
2023-02-12T22:43:32.055Z,58.83
2023-02-12T22:45:58.827Z,57.08
2023-02-12T22:50:51.437Z,55.42
2023-02-12T22:53:17.968Z,64.50
2023-02-12T22:55:44.181Z,54.38
2023-02-12T22:58:10.963Z,50.50
2023-02-12T23:00:37.578Z,54.15
2023-02-12T23:03:03.934Z,53.55
2023-02-12T23:05:30.164Z,55.67
2023-02-12T23:07:56.399Z,50.10
2023-02-12T23:10:22.890Z,55.10
2023-02-12T23:12:49.142Z,52.78
2023-02-12T23:15:15.418Z,52.35
2023-02-12T23:17:41.658Z,56.85
2023-02-12T23:20:08.113Z,60.75
2023-02-12T23:22:35.263Z,57.33
2023-02-12T23:25:01.512Z,54.60
2023-02-12T23:27:27.750Z,53.67
2023-02-12T23:29:53.985Z,53.60
2023-02-12T23:32:20.214Z,53.53
2023-02-12T23:34:46.446Z,52.08
2023-02-12T23:37:12.715Z,56.58
2023-02-12T23:39:39.122Z,71.18
2023-02-12T23:42:05.441Z,55.22
2023-02-12T23:44:31.866Z,57.38
2023-02-12T23:46:58.143Z,52.55
2023-02-12T23:49:24.406Z,54.60
2023-02-12T23:51:50.723Z,61.08
2023-02-12T23:54:16.974Z,65.43
2023-02-12T23:56:43.211Z,54.50
2023-02-12T23:59:09.509Z,56.45
